createdAt,value
2019-01-05T00:00:36.228Z,11.73
2019-01-05T00:03:16.035Z,12.30
2019-01-05T00:05:52.234Z,12.87
2019-01-05T00:08:25.985Z,11.83
2019-01-05T00:11:12.805Z,12.90
2019-01-05T00:13:52.461Z,11.30
2019-01-05T00:16:25.950Z,12.83
2019-01-05T00:18:56.735Z,13.83
2019-01-05T00:21:36.177Z,13.37
2019-01-05T00:24:06.964Z,14.60
2019-01-05T00:26:53.772Z,12.23
2019-01-05T00:29:40.653Z,13.40
2019-01-05T00:32:27.462Z,14.13
2019-01-05T00:34:58.253Z,13.40
2019-01-05T00:37:29.044Z,13.23
2019-01-05T00:39:59.820Z,13.17
2019-01-05T00:42:39.271Z,11.93
2019-01-05T00:45:16.308Z,13.53
2019-01-05T00:47:49.573Z,14.40
2019-01-05T00:50:26.206Z,12.63
2019-01-05T00:53:13.193Z,11.67
2019-01-05T00:55:52.696Z,14.70
2019-01-05T00:58:25.913Z,13.73
2019-01-05T01:01:12.798Z,12.77
2019-01-05T01:03:49.375Z,12.87
2019-01-05T01:06:28.980Z,12.93
2019-01-05T01:09:08.793Z,13.17
2019-01-05T01:11:42.233Z,12.77
2019-01-05T01:14:13.018Z,11.83
2019-01-05T01:17:02.164Z,12.30
2019-01-05T01:19:51.098Z,11.20
2019-01-05T01:22:33.848Z,11.60
2019-01-05T01:25:19.681Z,12.17
2019-01-05T01:27:50.459Z,11.97
2019-01-05T01:30:30.325Z,12.53
2019-01-05T01:33:01.117Z,11.47
2019-01-05T01:35:34.663Z,12.53
2019-01-05T01:38:28.110Z,13.20
2019-01-05T01:40:59.046Z,12.10
2019-01-05T01:43:32.882Z,13.33
2019-01-05T01:46:12.863Z,13.80
2019-01-05T01:48:46.700Z,12.97
2019-01-05T01:51:19.874Z,12.47
2019-01-05T01:53:53.635Z,13.63
2019-01-05T01:56:33.388Z,12.27
2019-01-05T01:59:07.477Z,12.33
2019-01-05T02:01:38.857Z,13.20
2019-01-05T02:04:27.530Z,13.47
2019-01-05T02:07:07.227Z,14.17
2019-01-05T02:09:38.025Z,12.30
2019-01-05T02:12:21.504Z,12.37
2019-01-05T02:15:02.534Z,12.73
2019-01-05T02:17:41.094Z,11.03
2019-01-05T02:20:25.140Z,13.37
2019-01-05T02:23:24.466Z,13.43
2019-01-05T02:26:35.801Z,12.53
2019-01-05T02:29:48.376Z,13.40
2019-01-05T02:32:53.930Z,13.60
2019-01-05T02:36:06.080Z,13.23
2019-01-05T02:39:37.737Z,13.33
2019-01-05T02:42:40.898Z,11.90
2019-01-05T02:46:12.585Z,12.63
2019-01-05T02:49:05.362Z,13.37
2019-01-05T02:52:24.774Z,13.70
2019-01-05T02:55:18.436Z,13.63
2019-01-05T02:58:31.137Z,12.50
2019-01-05T03:01:41.388Z,12.93
2019-01-05T03:04:40.494Z,12.37
2019-01-05T03:08:02.885Z,13.20
2019-01-05T03:11:14.686Z,13.60
2019-01-05T03:14:38.633Z,13.87
2019-01-05T03:17:37.865Z,11.80
2019-01-05T03:20:43.583Z,13.63
2019-01-05T03:23:48.420Z,15.00
2019-01-05T03:26:53.924Z,13.27
2019-01-05T03:29:57.840Z,13.50
2019-01-05T03:32:55.460Z,12.90
2019-01-05T03:35:54.708Z,13.00
2019-01-05T03:38:38.981Z,13.23
2019-01-05T03:41:52.387Z,13.63
2019-01-05T03:45:04.334Z,13.47
2019-01-05T03:48:14.452Z,13.37
2019-01-05T03:51:04.570Z,13.17
2019-01-05T03:54:26.709Z,12.23
2019-01-05T03:57:45.334Z,12.10
2019-01-05T04:00:51.985Z,13.10
2019-01-05T04:04:08.436Z,13.27
2019-01-05T04:07:09.681Z,12.87
2019-01-05T04:10:32.315Z,13.80
2019-01-05T04:13:50.158Z,12.10
2019-01-05T04:16:57.376Z,12.53
2019-01-05T04:20:18.262Z,10.57
2019-01-05T04:23:31.757Z,11.37
2019-01-05T04:26:44.724Z,11.83
2019-01-05T04:29:56.347Z,10.87
2019-01-05T04:32:52.925Z,12.40
2019-01-05T04:35:49.154Z,11.83
2019-01-05T04:39:05.287Z,11.00
2019-01-05T04:41:49.587Z,11.87
2019-01-05T04:44:46.284Z,10.60
2019-01-05T04:47:57.922Z,10.80
2019-01-05T04:51:22.143Z,16.40
2019-01-05T04:54:30.342Z,17.10
2019-01-05T04:57:26.520Z,11.77
2019-01-05T05:00:33.688Z,12.63
2019-01-05T05:03:40.717Z,12.43
2019-01-05T05:07:09.230Z,9.80
2019-01-05T05:10:21.244Z,9.03
2019-01-05T05:13:40.737Z,10.47
2019-01-05T05:17:14.877Z,10.70
2019-01-05T05:20:26.877Z,10.13
2019-01-05T05:23:37.129Z,12.03
2019-01-05T05:26:59.826Z,10.83
2019-01-05T05:29:56.488Z,11.40
2019-01-05T05:32:59.101Z,11.13
2019-01-05T05:36:23.250Z,9.73
2019-01-05T05:39:52.135Z,10.47
2019-01-05T05:43:00.482Z,9.73
2019-01-05T05:46:13.009Z,9.60
2019-01-05T05:49:17.369Z,8.50
2019-01-05T05:52:38.107Z,9.43
2019-01-05T05:55:42.221Z,9.67
2019-01-05T05:58:41.139Z,9.33
2019-01-05T06:01:45.476Z,7.40
2019-01-05T06:05:02.267Z,8.63
2019-01-05T06:08:21.211Z,7.63
2019-01-05T06:11:40.422Z,7.37
2019-01-05T06:14:41.422Z,8.13
2019-01-05T06:17:43.994Z,7.80
2019-01-05T06:20:43.561Z,7.73
2019-01-05T06:23:49.106Z,7.70
2019-01-05T06:27:01.611Z,6.77
2019-01-05T06:30:16.402Z,7.20
2019-01-05T06:33:19.681Z,5.30
2019-01-05T06:36:32.576Z,6.00
2019-01-05T06:39:49.019Z,6.20
2019-01-05T06:42:36.246Z,5.33
2019-01-05T06:45:54.292Z,6.20
2019-01-05T06:49:17.876Z,6.67
2019-01-05T06:52:21.858Z,5.93
2019-01-05T06:55:21.721Z,5.40
2019-01-05T06:58:31.516Z,5.33
2019-01-05T07:01:55.771Z,5.00
2019-01-05T07:04:50.739Z,5.20
2019-01-05T07:08:09.712Z,4.97
2019-01-05T07:10:45.371Z,4.73
2019-01-05T07:13:46.851Z,4.27
2019-01-05T07:16:54.133Z,4.30
2019-01-05T07:19:38.156Z,3.97
2019-01-05T07:22:40.639Z,3.77
2019-01-05T07:25:55.538Z,3.87
2019-01-05T07:29:24.082Z,4.43
2019-01-05T07:33:00.472Z,4.53
2019-01-05T07:36:29.346Z,4.37
2019-01-05T07:39:33.790Z,4.40
2019-01-05T07:42:36.197Z,4.47
2019-01-05T07:45:39.829Z,4.73
2019-01-05T07:49:21.852Z,4.73
2019-01-05T07:52:42.501Z,4.77
2019-01-05T07:55:38.933Z,4.33
2019-01-05T07:58:47.625Z,4.33
2019-01-05T08:01:47.321Z,4.70
2019-01-05T08:05:07.519Z,4.50
2019-01-05T08:08:18.838Z,4.87
2019-01-05T08:11:44.533Z,4.87
2019-01-05T08:15:12.905Z,4.23
2019-01-05T08:18:27.194Z,4.43
2019-01-05T08:21:42.483Z,4.43
2019-01-05T08:25:13.656Z,4.23
2019-01-05T08:28:30.216Z,4.07
2019-01-05T08:31:52.953Z,4.83
2019-01-05T08:35:06.460Z,5.47
2019-01-05T08:38:27.354Z,4.90
2019-01-05T08:41:56.922Z,4.93
2019-01-05T08:45:06.640Z,5.23
2019-01-05T08:48:35.021Z,6.33
2019-01-05T08:51:43.858Z,5.20
2019-01-05T08:55:02.965Z,5.47
2019-01-05T08:58:10.029Z,5.03
2019-01-05T09:01:25.690Z,4.97
2019-01-05T09:04:40.714Z,5.83
2019-01-05T09:07:48.133Z,5.20
2019-01-05T09:11:12.711Z,5.30
2019-01-05T09:14:19.912Z,6.80
2019-01-05T09:17:21.743Z,6.77
2019-01-05T09:20:30.450Z,7.03
2019-01-05T09:23:11.869Z,6.23
2019-01-05T09:26:20.108Z,4.90
2019-01-05T09:29:33.044Z,7.07
2019-01-05T09:32:38.080Z,5.80
2019-01-05T09:35:30.823Z,7.73
